sensor_id;sensor_type;location;lat;lon;timestamp;P1;durP1;ratioP1;P2;durP2;ratioP2
46941;SDS011;32676;52.630;4.896;2024-02-14T00:00:01;10.90;;;8.07;;
46941;SDS011;32676;52.630;4.896;2024-02-14T00:02:29;13.18;;;9.82;;
46941;SDS011;32676;52.630;4.896;2024-02-14T00:04:56;14.52;;;8.63;;
46941;SDS011;32676;52.630;4.896;2024-02-14T00:07:22;10.35;;;7.78;;
46941;SDS011;32676;52.630;4.896;2024-02-14T00:09:49;15.77;;;8.13;;
46941;SDS011;32676;52.630;4.896;2024-02-14T00:12:16;8.68;;;7.68;;
46941;SDS011;32676;52.630;4.896;2024-02-14T00:14:43;8.55;;;7.00;;
46941;SDS011;32676;52.630;4.896;2024-02-14T00:17:10;8.23;;;6.53;;
46941;SDS011;32676;52.630;4.896;2024-02-14T00:19:37;12.18;;;7.43;;
46941;SDS011;32676;52.630;4.896;2024-02-14T00:22:04;10.65;;;7.57;;
46941;SDS011;32676;52.630;4.896;2024-02-14T00:24:31;12.77;;;8.25;;
46941;SDS011;32676;52.630;4.896;2024-02-14T00:26:59;12.27;;;7.88;;
46941;SDS011;32676;52.630;4.896;2024-02-14T00:29:25;10.82;;;7.53;;
46941;SDS011;32676;52.630;4.896;2024-02-14T00:31:52;17.08;;;8.25;;
46941;SDS011;32676;52.630;4.896;2024-02-14T00:34:20;9.98;;;7.68;;
46941;SDS011;32676;52.630;4.896;2024-02-14T00:36:47;8.98;;;7.40;;
46941;SDS011;32676;52.630;4.896;2024-02-14T00:39:12;11.25;;;7.45;;
46941;SDS011;32676;52.630;4.896;2024-02-14T00:41:39;8.63;;;7.35;;
46941;SDS011;32676;52.630;4.896;2024-02-14T00:44:06;7.28;;;5.97;;
46941;SDS011;32676;52.630;4.896;2024-02-14T00:46:32;9.45;;;6.22;;
46941;SDS011;32676;52.630;4.896;2024-02-14T00:48:59;9.93;;;6.75;;
46941;SDS011;32676;52.630;4.896;2024-02-14T00:51:27;9.73;;;6.25;;
46941;SDS011;32676;52.630;4.896;2024-02-14T00:53:53;10.55;;;6.28;;
46941;SDS011;32676;52.630;4.896;2024-02-14T00:56:20;8.68;;;6.20;;
46941;SDS011;32676;52.630;4.896;2024-02-14T00:58:48;8.63;;;5.65;;
46941;SDS011;32676;52.630;4.896;2024-02-14T01:01:14;10.25;;;5.63;;
46941;SDS011;32676;52.630;4.896;2024-02-14T01:03:41;6.57;;;5.47;;
46941;SDS011;32676;52.630;4.896;2024-02-14T01:06:09;7.65;;;4.90;;
46941;SDS011;32676;52.630;4.896;2024-02-14T01:08:37;6.30;;;3.90;;
46941;SDS011;32676;52.630;4.896;2024-02-14T01:11:04;5.93;;;4.05;;
46941;SDS011;32676;52.630;4.896;2024-02-14T01:13:31;5.30;;;3.90;;
46941;SDS011;32676;52.630;4.896;2024-02-14T01:15:58;5.80;;;4.20;;
46941;SDS011;32676;52.630;4.896;2024-02-14T01:18:25;7.22;;;4.40;;
46941;SDS011;32676;52.630;4.896;2024-02-14T01:20:51;6.25;;;4.15;;
46941;SDS011;32676;52.630;4.896;2024-02-14T01:23:18;10.32;;;5.50;;
46941;SDS011;32676;52.630;4.896;2024-02-14T01:25:47;10.77;;;4.55;;
46941;SDS011;32676;52.630;4.896;2024-02-14T01:28:15;8.48;;;4.38;;
46941;SDS011;32676;52.630;4.896;2024-02-14T01:30:42;15.35;;;5.40;;
46941;SDS011;32676;52.630;4.896;2024-02-14T01:33:09;12.93;;;6.60;;
46941;SDS011;32676;52.630;4.896;2024-02-14T01:35:36;11.73;;;5.88;;
46941;SDS011;32676;52.630;4.896;2024-02-14T01:38:02;14.80;;;6.45;;
46941;SDS011;32676;52.630;4.896;2024-02-14T01:40:29;14.85;;;6.88;;
46941;SDS011;32676;52.630;4.896;2024-02-14T01:42:57;29.77;;;9.13;;
46941;SDS011;32676;52.630;4.896;2024-02-14T01:45:23;22.73;;;6.85;;
46941;SDS011;32676;52.630;4.896;2024-02-14T01:47:50;18.25;;;7.10;;
46941;SDS011;32676;52.630;4.896;2024-02-14T01:50:18;16.50;;;8.00;;
46941;SDS011;32676;52.630;4.896;2024-02-14T01:52:54;23.52;;;8.20;;
46941;SDS011;32676;52.630;4.896;2024-02-14T01:55:22;18.55;;;7.07;;
46941;SDS011;32676;52.630;4.896;2024-02-14T01:57:51;22.85;;;8.60;;
46941;SDS011;32676;52.630;4.896;2024-02-14T02:00:20;23.33;;;8.57;;
46941;SDS011;32676;52.630;4.896;2024-02-14T02:02:47;22.05;;;9.63;;
46941;SDS011;32676;52.630;4.896;2024-02-14T02:05:14;26.65;;;7.72;;
46941;SDS011;32676;52.630;4.896;2024-02-14T02:07:41;22.20;;;7.05;;
46941;SDS011;32676;52.630;4.896;2024-02-14T02:10:09;20.63;;;7.03;;
46941;SDS011;32676;52.630;4.896;2024-02-14T02:12:36;30.40;;;8.35;;
46941;SDS011;32676;52.630;4.896;2024-02-14T02:15:04;27.45;;;8.00;;
46941;SDS011;32676;52.630;4.896;2024-02-14T02:17:32;26.50;;;7.93;;
46941;SDS011;32676;52.630;4.896;2024-02-14T02:19:59;17.02;;;7.03;;
46941;SDS011;32676;52.630;4.896;2024-02-14T02:22:26;18.20;;;7.25;;
46941;SDS011;32676;52.630;4.896;2024-02-14T02:24:58;20.15;;;7.53;;
46941;SDS011;32676;52.630;4.896;2024-02-14T02:27:25;19.75;;;7.63;;
46941;SDS011;32676;52.630;4.896;2024-02-14T02:29:52;18.17;;;7.22;;
46941;SDS011;32676;52.630;4.896;2024-02-14T02:32:18;22.35;;;7.93;;
46941;SDS011;32676;52.630;4.896;2024-02-14T02:34:45;25.10;;;9.07;;
46941;SDS011;32676;52.630;4.896;2024-02-14T02:37:11;23.42;;;7.40;;
46941;SDS011;32676;52.630;4.896;2024-02-14T02:39:38;20.80;;;6.55;;
46941;SDS011;32676;52.630;4.896;2024-02-14T02:42:06;14.07;;;5.65;;
46941;SDS011;32676;52.630;4.896;2024-02-14T02:44:33;15.88;;;5.55;;
46941;SDS011;32676;52.630;4.896;2024-02-14T02:47:02;22.42;;;6.80;;
46941;SDS011;32676;52.630;4.896;2024-02-14T02:49:29;20.10;;;6.68;;
46941;SDS011;32676;52.630;4.896;2024-02-14T02:51:56;19.25;;;5.65;;
46941;SDS011;32676;52.630;4.896;2024-02-14T02:54:24;12.55;;;5.38;;
46941;SDS011;32676;52.630;4.896;2024-02-14T02:56:50;19.08;;;5.72;;
46941;SDS011;32676;52.630;4.896;2024-02-14T02:59:19;19.15;;;4.03;;
46941;SDS011;32676;52.630;4.896;2024-02-14T03:01:47;14.95;;;5.15;;
46941;SDS011;32676;52.630;4.896;2024-02-14T03:04:14;20.42;;;4.13;;
46941;SDS011;32676;52.630;4.896;2024-02-14T03:06:41;23.98;;;5.47;;
46941;SDS011;32676;52.630;4.896;2024-02-14T03:09:08;14.98;;;3.50;;
46941;SDS011;32676;52.630;4.896;2024-02-14T03:11:34;17.73;;;3.72;;
46941;SDS011;32676;52.630;4.896;2024-02-14T03:14:02;15.70;;;3.15;;
46941;SDS011;32676;52.630;4.896;2024-02-14T03:16:30;21.60;;;3.63;;
46941;SDS011;32676;52.630;4.896;2024-02-14T03:18:57;16.52;;;3.13;;
46941;SDS011;32676;52.630;4.896;2024-02-14T03:21:23;23.02;;;3.60;;
46941;SDS011;32676;52.630;4.896;2024-02-14T03:23:50;20.98;;;4.53;;
46941;SDS011;32676;52.630;4.896;2024-02-14T03:26:19;24.52;;;4.53;;
46941;SDS011;32676;52.630;4.896;2024-02-14T03:28:45;31.52;;;5.78;;
46941;SDS011;32676;52.630;4.896;2024-02-14T03:31:13;42.15;;;8.32;;
46941;SDS011;32676;52.630;4.896;2024-02-14T03:33:42;35.28;;;7.30;;
46941;SDS011;32676;52.630;4.896;2024-02-14T03:36:10;43.67;;;7.20;;
46941;SDS011;32676;52.630;4.896;2024-02-14T03:38:36;36.25;;;7.80;;
46941;SDS011;32676;52.630;4.896;2024-02-14T03:41:05;36.67;;;6.60;;
46941;SDS011;32676;52.630;4.896;2024-02-14T03:43:32;51.03;;;10.20;;
46941;SDS011;32676;52.630;4.896;2024-02-14T03:45:59;47.53;;;8.73;;
46941;SDS011;32676;52.630;4.896;2024-02-14T03:48:26;55.42;;;8.35;;
46941;SDS011;32676;52.630;4.896;2024-02-14T03:50:54;59.30;;;8.80;;
46941;SDS011;32676;52.630;4.896;2024-02-14T03:53:20;47.70;;;9.68;;
46941;SDS011;32676;52.630;4.896;2024-02-14T03:55:47;52.25;;;8.35;;
46941;SDS011;32676;52.630;4.896;2024-02-14T03:58:14;72.10;;;10.32;;
46941;SDS011;32676;52.630;4.896;2024-02-14T04:00:42;47.92;;;8.60;;
46941;SDS011;32676;52.630;4.896;2024-02-14T04:03:11;53.47;;;7.57;;
46941;SDS011;32676;52.630;4.896;2024-02-14T04:05:38;48.13;;;9.27;;
46941;SDS011;32676;52.630;4.896;2024-02-14T04:08:06;53.10;;;8.93;;
46941;SDS011;32676;52.630;4.896;2024-02-14T04:10:34;51.17;;;6.80;;
46941;SDS011;32676;52.630;4.896;2024-02-14T04:13:02;42.00;;;8.90;;
46941;SDS011;32676;52.630;4.896;2024-02-14T04:15:29;61.17;;;8.95;;
46941;SDS011;32676;52.630;4.896;2024-02-14T04:17:56;42.03;;;8.63;;
46941;SDS011;32676;52.630;4.896;2024-02-14T04:20:23;58.08;;;11.65;;
46941;SDS011;32676;52.630;4.896;2024-02-14T04:22:50;54.13;;;9.07;;
46941;SDS011;32676;52.630;4.896;2024-02-14T04:25:18;57.45;;;9.40;;
46941;SDS011;32676;52.630;4.896;2024-02-14T04:27:44;61.75;;;10.35;;
46941;SDS011;32676;52.630;4.896;2024-02-14T04:30:11;56.55;;;7.95;;
46941;SDS011;32676;52.630;4.896;2024-02-14T04:32:38;49.25;;;8.23;;
46941;SDS011;32676;52.630;4.896;2024-02-14T04:35:05;72.38;;;9.45;;
46941;SDS011;32676;52.630;4.896;2024-02-14T04:37:31;80.82;;;11.07;;
46941;SDS011;32676;52.630;4.896;2024-02-14T04:39:58;62.30;;;11.43;;
46941;SDS011;32676;52.630;4.896;2024-02-14T04:42:26;63.22;;;8.02;;
46941;SDS011;32676;52.630;4.896;2024-02-14T04:44:52;57.78;;;8.77;;
46941;SDS011;32676;52.630;4.896;2024-02-14T04:47:21;64.93;;;8.90;;
46941;SDS011;32676;52.630;4.896;2024-02-14T04:49:48;54.55;;;10.25;;
46941;SDS011;32676;52.630;4.896;2024-02-14T04:52:15;51.50;;;7.28;;
46941;SDS011;32676;52.630;4.896;2024-02-14T04:54:42;48.92;;;9.70;;
46941;SDS011;32676;52.630;4.896;2024-02-14T04:57:09;51.83;;;7.32;;
46941;SDS011;32676;52.630;4.896;2024-02-14T04:59:37;61.88;;;9.95;;
46941;SDS011;32676;52.630;4.896;2024-02-14T05:02:03;69.53;;;10.93;;
46941;SDS011;32676;52.630;4.896;2024-02-14T05:04:30;71.95;;;11.45;;
46941;SDS011;32676;52.630;4.896;2024-02-14T05:06:56;81.15;;;12.27;;
46941;SDS011;32676;52.630;4.896;2024-02-14T05:09:23;61.95;;;8.88;;
46941;SDS011;32676;52.630;4.896;2024-02-14T05:11:50;51.92;;;8.55;;
46941;SDS011;32676;52.630;4.896;2024-02-14T05:14:16;41.72;;;7.28;;
46941;SDS011;32676;52.630;4.896;2024-02-14T05:16:44;61.97;;;10.52;;
46941;SDS011;32676;52.630;4.896;2024-02-14T05:19:11;68.28;;;11.10;;
46941;SDS011;32676;52.630;4.896;2024-02-14T05:21:37;58.85;;;8.73;;
46941;SDS011;32676;52.630;4.896;2024-02-14T05:24:04;68.32;;;9.85;;
46941;SDS011;32676;52.630;4.896;2024-02-14T05:26:31;60.33;;;10.68;;
46941;SDS011;32676;52.630;4.896;2024-02-14T05:28:59;82.50;;;11.05;;
46941;SDS011;32676;52.630;4.896;2024-02-14T05:31:28;65.05;;;9.82;;
46941;SDS011;32676;52.630;4.896;2024-02-14T05:34:10;44.22;;;8.73;;
46941;SDS011;32676;52.630;4.896;2024-02-14T05:36:37;54.83;;;8.88;;
46941;SDS011;32676;52.630;4.896;2024-02-14T05:39:04;63.85;;;9.68;;
46941;SDS011;32676;52.630;4.896;2024-02-14T05:41:32;49.92;;;7.75;;
46941;SDS011;32676;52.630;4.896;2024-02-14T05:43:59;57.25;;;7.95;;
46941;SDS011;32676;52.630;4.896;2024-02-14T05:46:26;56.70;;;9.40;;
46941;SDS011;32676;52.630;4.896;2024-02-14T05:48:53;61.55;;;10.35;;
46941;SDS011;32676;52.630;4.896;2024-02-14T05:51:21;50.33;;;11.32;;
46941;SDS011;32676;52.630;4.896;2024-02-14T05:53:48;57.88;;;8.52;;
46941;SDS011;32676;52.630;4.896;2024-02-14T05:56:14;45.83;;;9.50;;
46941;SDS011;32676;52.630;4.896;2024-02-14T05:58:41;58.53;;;12.07;;
46941;SDS011;32676;52.630;4.896;2024-02-14T06:01:09;51.78;;;11.07;;
46941;SDS011;32676;52.630;4.896;2024-02-14T06:03:36;55.30;;;10.88;;
46941;SDS011;32676;52.630;4.896;2024-02-14T06:06:02;47.80;;;8.45;;
46941;SDS011;32676;52.630;4.896;2024-02-14T06:08:30;58.80;;;10.77;;
46941;SDS011;32676;52.630;4.896;2024-02-14T06:10:57;60.63;;;11.52;;
46941;SDS011;32676;52.630;4.896;2024-02-14T06:13:24;40.53;;;10.15;;
46941;SDS011;32676;52.630;4.896;2024-02-14T06:15:51;49.63;;;10.50;;
46941;SDS011;32676;52.630;4.896;2024-02-14T06:18:17;33.67;;;9.38;;
46941;SDS011;32676;52.630;4.896;2024-02-14T06:20:44;61.22;;;10.82;;
46941;SDS011;32676;52.630;4.896;2024-02-14T06:23:11;34.40;;;10.38;;
46941;SDS011;32676;52.630;4.896;2024-02-14T06:25:39;40.50;;;10.25;;
46941;SDS011;32676;52.630;4.896;2024-02-14T06:28:06;49.00;;;11.13;;
46941;SDS011;32676;52.630;4.896;2024-02-14T06:30:34;40.60;;;8.70;;
46941;SDS011;32676;52.630;4.896;2024-02-14T06:33:01;45.13;;;10.00;;
46941;SDS011;32676;52.630;4.896;2024-02-14T06:35:27;45.60;;;9.57;;
46941;SDS011;32676;52.630;4.896;2024-02-14T06:37:54;35.80;;;10.95;;
46941;SDS011;32676;52.630;4.896;2024-02-14T06:40:21;59.60;;;15.45;;
46941;SDS011;32676;52.630;4.896;2024-02-14T06:42:49;49.55;;;10.98;;
46941;SDS011;32676;52.630;4.896;2024-02-14T06:45:16;61.08;;;15.27;;
46941;SDS011;32676;52.630;4.896;2024-02-14T06:47:43;44.65;;;12.90;;
46941;SDS011;32676;52.630;4.896;2024-02-14T06:50:10;41.53;;;10.27;;
46941;SDS011;32676;52.630;4.896;2024-02-14T06:52:36;44.30;;;10.23;;
46941;SDS011;32676;52.630;4.896;2024-02-14T06:55:03;49.28;;;10.63;;
46941;SDS011;32676;52.630;4.896;2024-02-14T06:57:30;46.75;;;11.65;;
46941;SDS011;32676;52.630;4.896;2024-02-14T06:59:58;38.90;;;9.23;;
46941;SDS011;32676;52.630;4.896;2024-02-14T07:02:25;45.53;;;10.63;;
46941;SDS011;32676;52.630;4.896;2024-02-14T07:04:53;59.25;;;12.75;;
46941;SDS011;32676;52.630;4.896;2024-02-14T07:07:19;57.85;;;12.02;;
46941;SDS011;32676;52.630;4.896;2024-02-14T07:09:46;51.65;;;12.05;;
46941;SDS011;32676;52.630;4.896;2024-02-14T07:12:12;46.75;;;11.27;;
46941;SDS011;32676;52.630;4.896;2024-02-14T07:14:40;46.88;;;9.65;;
46941;SDS011;32676;52.630;4.896;2024-02-14T07:17:08;47.45;;;10.40;;
46941;SDS011;32676;52.630;4.896;2024-02-14T07:19:35;36.22;;;9.43;;
46941;SDS011;32676;52.630;4.896;2024-02-14T07:22:01;47.35;;;8.32;;
46941;SDS011;32676;52.630;4.896;2024-02-14T07:24:28;32.88;;;6.30;;
46941;SDS011;32676;52.630;4.896;2024-02-14T07:26:55;46.35;;;10.90;;
46941;SDS011;32676;52.630;4.896;2024-02-14T07:29:22;31.13;;;9.60;;
46941;SDS011;32676;52.630;4.896;2024-02-14T07:31:50;43.17;;;8.95;;
46941;SDS011;32676;52.630;4.896;2024-02-14T07:34:18;25.95;;;7.75;;
46941;SDS011;32676;52.630;4.896;2024-02-14T07:36:45;26.88;;;7.07;;
46941;SDS011;32676;52.630;4.896;2024-02-14T07:39:12;30.17;;;8.05;;
46941;SDS011;32676;52.630;4.896;2024-02-14T07:41:39;28.35;;;8.50;;
46941;SDS011;32676;52.630;4.896;2024-02-14T07:44:06;23.80;;;6.80;;
46941;SDS011;32676;52.630;4.896;2024-02-14T07:46:32;43.58;;;8.73;;
46941;SDS011;32676;52.630;4.896;2024-02-14T07:48:59;39.92;;;7.55;;
46941;SDS011;32676;52.630;4.896;2024-02-14T07:51:27;24.70;;;6.65;;
46941;SDS011;32676;52.630;4.896;2024-02-14T07:53:54;36.53;;;7.97;;
46941;SDS011;32676;52.630;4.896;2024-02-14T07:56:21;29.40;;;8.52;;
46941;SDS011;32676;52.630;4.896;2024-02-14T07:58:47;39.13;;;9.50;;
46941;SDS011;32676;52.630;4.896;2024-02-14T08:01:15;30.80;;;7.65;;
46941;SDS011;32676;52.630;4.896;2024-02-14T08:03:41;27.25;;;5.88;;
46941;SDS011;32676;52.630;4.896;2024-02-14T08:06:08;23.27;;;6.03;;
46941;SDS011;32676;52.630;4.896;2024-02-14T08:08:36;30.50;;;7.75;;
46941;SDS011;32676;52.630;4.896;2024-02-14T08:11:03;25.02;;;5.70;;
46941;SDS011;32676;52.630;4.896;2024-02-14T08:13:30;33.20;;;6.90;;
46941;SDS011;32676;52.630;4.896;2024-02-14T08:15:56;25.90;;;6.13;;
46941;SDS011;32676;52.630;4.896;2024-02-14T08:18:23;32.28;;;6.20;;
46941;SDS011;32676;52.630;4.896;2024-02-14T08:20:52;24.00;;;6.10;;
46941;SDS011;32676;52.630;4.896;2024-02-14T08:23:18;30.00;;;6.18;;
46941;SDS011;32676;52.630;4.896;2024-02-14T08:25:47;36.38;;;5.80;;
46941;SDS011;32676;52.630;4.896;2024-02-14T08:28:14;32.20;;;7.55;;
46941;SDS011;32676;52.630;4.896;2024-02-14T08:30:43;38.70;;;5.78;;
46941;SDS011;32676;52.630;4.896;2024-02-14T08:33:09;34.88;;;5.90;;
46941;SDS011;32676;52.630;4.896;2024-02-14T08:35:36;32.13;;;5.97;;
46941;SDS011;32676;52.630;4.896;2024-02-14T08:38:03;26.90;;;5.70;;
46941;SDS011;32676;52.630;4.896;2024-02-14T08:40:31;35.60;;;7.20;;
46941;SDS011;32676;52.630;4.896;2024-02-14T08:42:59;34.42;;;8.63;;
46941;SDS011;32676;52.630;4.896;2024-02-14T08:45:26;35.40;;;4.72;;
46941;SDS011;32676;52.630;4.896;2024-02-14T08:47:54;30.05;;;7.68;;
46941;SDS011;32676;52.630;4.896;2024-02-14T08:50:21;26.88;;;5.68;;
46941;SDS011;32676;52.630;4.896;2024-02-14T08:52:49;32.20;;;5.68;;
46941;SDS011;32676;52.630;4.896;2024-02-14T08:55:15;28.63;;;9.35;;
46941;SDS011;32676;52.630;4.896;2024-02-14T08:57:45;20.83;;;5.05;;
46941;SDS011;32676;52.630;4.896;2024-02-14T09:00:14;26.00;;;5.72;;
46941;SDS011;32676;52.630;4.896;2024-02-14T09:02:44;22.30;;;5.43;;
46941;SDS011;32676;52.630;4.896;2024-02-14T09:05:11;32.53;;;7.03;;
46941;SDS011;32676;52.630;4.896;2024-02-14T09:07:38;30.38;;;6.63;;
46941;SDS011;32676;52.630;4.896;2024-02-14T09:10:06;27.05;;;6.75;;
46941;SDS011;32676;52.630;4.896;2024-02-14T09:12:35;25.38;;;5.60;;
46941;SDS011;32676;52.630;4.896;2024-02-14T09:15:02;19.48;;;5.65;;
46941;SDS011;32676;52.630;4.896;2024-02-14T09:17:31;20.02;;;4.70;;
46941;SDS011;32676;52.630;4.896;2024-02-14T09:19:57;34.30;;;6.32;;
46941;SDS011;32676;52.630;4.896;2024-02-14T09:22:24;22.80;;;5.25;;
46941;SDS011;32676;52.630;4.896;2024-02-14T09:24:59;20.25;;;6.07;;
46941;SDS011;32676;52.630;4.896;2024-02-14T09:27:25;27.67;;;6.10;;
46941;SDS011;32676;52.630;4.896;2024-02-14T09:29:52;23.52;;;4.90;;
46941;SDS011;32676;52.630;4.896;2024-02-14T09:32:18;26.65;;;5.47;;
46941;SDS011;32676;52.630;4.896;2024-02-14T09:34:46;21.27;;;4.47;;
46941;SDS011;32676;52.630;4.896;2024-02-14T09:40:05;19.60;;;5.13;;
46941;SDS011;32676;52.630;4.896;2024-02-14T09:42:34;22.10;;;4.15;;
46941;SDS011;32676;52.630;4.896;2024-02-14T09:45:05;12.52;;;4.35;;
46941;SDS011;32676;52.630;4.896;2024-02-14T09:47:33;30.52;;;7.57;;
46941;SDS011;32676;52.630;4.896;2024-02-14T09:50:01;24.52;;;4.72;;
46941;SDS011;32676;52.630;4.896;2024-02-14T09:52:31;21.42;;;5.70;;
46941;SDS011;32676;52.630;4.896;2024-02-14T09:54:59;16.17;;;4.43;;
46941;SDS011;32676;52.630;4.896;2024-02-14T09:57:28;11.77;;;4.80;;
46941;SDS011;32676;52.630;4.896;2024-02-14T09:59:59;12.90;;;3.88;;
46941;SDS011;32676;52.630;4.896;2024-02-14T10:02:26;24.25;;;5.53;;
46941;SDS011;32676;52.630;4.896;2024-02-14T10:04:53;15.57;;;4.10;;
46941;SDS011;32676;52.630;4.896;2024-02-14T10:07:21;21.48;;;5.38;;
46941;SDS011;32676;52.630;4.896;2024-02-14T10:09:48;16.48;;;4.85;;
46941;SDS011;32676;52.630;4.896;2024-02-14T10:12:15;10.07;;;4.35;;
46941;SDS011;32676;52.630;4.896;2024-02-14T10:14:42;17.45;;;5.55;;
46941;SDS011;32676;52.630;4.896;2024-02-14T10:17:16;12.43;;;4.03;;
46941;SDS011;32676;52.630;4.896;2024-02-14T10:19:43;12.98;;;3.80;;
46941;SDS011;32676;52.630;4.896;2024-02-14T10:22:22;13.85;;;3.40;;
46941;SDS011;32676;52.630;4.896;2024-02-14T10:24:50;12.27;;;2.90;;
46941;SDS011;32676;52.630;4.896;2024-02-14T10:27:16;7.30;;;2.65;;
46941;SDS011;32676;52.630;4.896;2024-02-14T10:29:43;11.85;;;3.00;;
46941;SDS011;32676;52.630;4.896;2024-02-14T10:32:09;12.25;;;3.05;;
46941;SDS011;32676;52.630;4.896;2024-02-14T10:34:37;11.18;;;3.22;;
46941;SDS011;32676;52.630;4.896;2024-02-14T10:37:04;12.05;;;3.05;;
46941;SDS011;32676;52.630;4.896;2024-02-14T10:39:33;12.13;;;2.83;;
46941;SDS011;32676;52.630;4.896;2024-02-14T10:42:03;13.85;;;2.92;;
46941;SDS011;32676;52.630;4.896;2024-02-14T10:44:31;16.17;;;4.35;;
46941;SDS011;32676;52.630;4.896;2024-02-14T10:46:58;14.93;;;2.75;;
46941;SDS011;32676;52.630;4.896;2024-02-14T10:49:28;14.68;;;2.80;;
46941;SDS011;32676;52.630;4.896;2024-02-14T10:51:56;13.80;;;5.00;;
46941;SDS011;32676;52.630;4.896;2024-02-14T10:54:27;10.70;;;2.33;;
46941;SDS011;32676;52.630;4.896;2024-02-14T10:56:56;11.57;;;2.45;;
46941;SDS011;32676;52.630;4.896;2024-02-14T10:59:28;13.43;;;2.72;;
46941;SDS011;32676;52.630;4.896;2024-02-14T11:01:55;13.40;;;3.70;;
46941;SDS011;32676;52.630;4.896;2024-02-14T11:04:22;9.88;;;3.28;;
46941;SDS011;32676;52.630;4.896;2024-02-14T11:06:52;17.20;;;3.67;;
46941;SDS011;32676;52.630;4.896;2024-02-14T11:09:19;12.75;;;3.60;;
46941;SDS011;32676;52.630;4.896;2024-02-14T11:11:46;12.13;;;3.78;;
46941;SDS011;32676;52.630;4.896;2024-02-14T11:14:16;11.32;;;4.45;;
46941;SDS011;32676;52.630;4.896;2024-02-14T11:16:44;15.18;;;4.15;;
46941;SDS011;32676;52.630;4.896;2024-02-14T11:19:12;9.55;;;3.60;;
46941;SDS011;32676;52.630;4.896;2024-02-14T11:21:41;21.40;;;4.47;;
46941;SDS011;32676;52.630;4.896;2024-02-14T11:24:10;11.27;;;3.80;;
46941;SDS011;32676;52.630;4.896;2024-02-14T11:26:40;6.28;;;2.80;;
46941;SDS011;32676;52.630;4.896;2024-02-14T11:29:13;10.63;;;3.58;;
46941;SDS011;32676;52.630;4.896;2024-02-14T11:31:42;10.60;;;3.00;;
46941;SDS011;32676;52.630;4.896;2024-02-14T11:34:10;8.00;;;3.33;;
46941;SDS011;32676;52.630;4.896;2024-02-14T11:36:37;9.02;;;3.13;;
46941;SDS011;32676;52.630;4.896;2024-02-14T11:39:06;8.40;;;2.97;;
46941;SDS011;32676;52.630;4.896;2024-02-14T11:41:32;8.02;;;2.60;;
46941;SDS011;32676;52.630;4.896;2024-02-14T11:44:00;4.93;;;2.38;;
46941;SDS011;32676;52.630;4.896;2024-02-14T11:46:28;6.25;;;2.30;;
46941;SDS011;32676;52.630;4.896;2024-02-14T11:48:57;5.60;;;1.88;;
46941;SDS011;32676;52.630;4.896;2024-02-14T11:51:26;5.78;;;2.08;;
46941;SDS011;32676;52.630;4.896;2024-02-14T11:53:54;5.25;;;2.40;;
46941;SDS011;32676;52.630;4.896;2024-02-14T11:56:20;4.75;;;1.75;;
46941;SDS011;32676;52.630;4.896;2024-02-14T11:58:47;4.60;;;1.88;;
46941;SDS011;32676;52.630;4.896;2024-02-14T12:01:15;5.32;;;1.85;;
46941;SDS011;32676;52.630;4.896;2024-02-14T12:03:42;4.90;;;2.17;;
46941;SDS011;32676;52.630;4.896;2024-02-14T12:06:11;9.23;;;3.63;;
46941;SDS011;32676;52.630;4.896;2024-02-14T12:08:38;8.05;;;3.90;;
46941;SDS011;32676;52.630;4.896;2024-02-14T12:11:05;8.35;;;4.15;;
46941;SDS011;32676;52.630;4.896;2024-02-14T12:13:32;7.32;;;3.08;;
46941;SDS011;32676;52.630;4.896;2024-02-14T12:16:03;7.22;;;2.38;;
46941;SDS011;32676;52.630;4.896;2024-02-14T12:18:30;6.70;;;2.88;;
46941;SDS011;32676;52.630;4.896;2024-02-14T12:21:05;8.50;;;3.05;;
46941;SDS011;32676;52.630;4.896;2024-02-14T12:23:35;3.05;;;1.73;;
46941;SDS011;32676;52.630;4.896;2024-02-14T12:26:02;5.90;;;3.05;;
46941;SDS011;32676;52.630;4.896;2024-02-14T12:28:29;5.07;;;1.50;;
46941;SDS011;32676;52.630;4.896;2024-02-14T12:30:57;2.90;;;1.50;;
46941;SDS011;32676;52.630;4.896;2024-02-14T12:33:24;4.45;;;1.33;;
46941;SDS011;32676;52.630;4.896;2024-02-14T12:35:53;3.22;;;1.23;;
46941;SDS011;32676;52.630;4.896;2024-02-14T12:38:21;2.55;;;1.20;;
46941;SDS011;32676;52.630;4.896;2024-02-14T12:40:50;3.67;;;1.20;;
46941;SDS011;32676;52.630;4.896;2024-02-14T12:43:19;1.50;;;0.80;;
46941;SDS011;32676;52.630;4.896;2024-02-14T12:45:45;1.65;;;0.80;;
46941;SDS011;32676;52.630;4.896;2024-02-14T12:48:12;2.28;;;1.10;;
46941;SDS011;32676;52.630;4.896;2024-02-14T12:50:40;5.72;;;1.40;;
46941;SDS011;32676;52.630;4.896;2024-02-14T12:53:12;12.23;;;1.90;;
46941;SDS011;32676;52.630;4.896;2024-02-14T12:55:40;9.63;;;2.97;;
46941;SDS011;32676;52.630;4.896;2024-02-14T12:58:08;7.15;;;3.00;;
46941;SDS011;32676;52.630;4.896;2024-02-14T13:00:35;6.03;;;2.30;;
46941;SDS011;32676;52.630;4.896;2024-02-14T13:03:03;9.57;;;3.00;;
46941;SDS011;32676;52.630;4.896;2024-02-14T13:05:30;10.50;;;2.60;;
46941;SDS011;32676;52.630;4.896;2024-02-14T13:07:56;7.60;;;2.60;;
46941;SDS011;32676;52.630;4.896;2024-02-14T13:10:23;9.50;;;2.47;;
46941;SDS011;32676;52.630;4.896;2024-02-14T13:12:49;4.20;;;1.88;;
46941;SDS011;32676;52.630;4.896;2024-02-14T13:15:17;6.10;;;1.45;;
46941;SDS011;32676;52.630;4.896;2024-02-14T13:17:44;7.22;;;1.70;;
46941;SDS011;32676;52.630;4.896;2024-02-14T13:20:11;6.40;;;1.02;;
46941;SDS011;32676;52.630;4.896;2024-02-14T13:22:40;4.90;;;1.55;;
46941;SDS011;32676;52.630;4.896;2024-02-14T13:25:07;4.88;;;1.00;;
46941;SDS011;32676;52.630;4.896;2024-02-14T13:27:34;2.90;;;1.25;;
46941;SDS011;32676;52.630;4.896;2024-02-14T13:30:00;4.55;;;0.88;;
46941;SDS011;32676;52.630;4.896;2024-02-14T13:32:28;2.67;;;0.80;;
46941;SDS011;32676;52.630;4.896;2024-02-14T13:34:55;2.97;;;0.68;;
46941;SDS011;32676;52.630;4.896;2024-02-14T13:37:22;4.65;;;1.00;;
46941;SDS011;32676;52.630;4.896;2024-02-14T13:39:49;1.45;;;0.80;;
46941;SDS011;32676;52.630;4.896;2024-02-14T13:42:15;1.60;;;0.90;;
46941;SDS011;32676;52.630;4.896;2024-02-14T13:44:42;4.18;;;1.45;;
46941;SDS011;32676;52.630;4.896;2024-02-14T13:47:09;3.90;;;1.30;;
46941;SDS011;32676;52.630;4.896;2024-02-14T13:49:37;5.75;;;2.10;;
46941;SDS011;32676;52.630;4.896;2024-02-14T13:52:04;4.97;;;2.17;;
46941;SDS011;32676;52.630;4.896;2024-02-14T13:54:31;6.68;;;2.25;;
46941;SDS011;32676;52.630;4.896;2024-02-14T13:56:57;9.57;;;2.50;;
46941;SDS011;32676;52.630;4.896;2024-02-14T13:59:24;5.75;;;2.70;;
46941;SDS011;32676;52.630;4.896;2024-02-14T14:01:51;7.88;;;2.75;;
46941;SDS011;32676;52.630;4.896;2024-02-14T14:04:17;8.57;;;3.45;;
46941;SDS011;32676;52.630;4.896;2024-02-14T14:06:47;6.40;;;2.13;;
46941;SDS011;32676;52.630;4.896;2024-02-14T14:09:14;8.48;;;2.50;;
46941;SDS011;32676;52.630;4.896;2024-02-14T14:11:40;5.07;;;1.95;;
46941;SDS011;32676;52.630;4.896;2024-02-14T14:14:07;6.57;;;2.15;;
46941;SDS011;32676;52.630;4.896;2024-02-14T14:16:36;4.10;;;2.72;;
46941;SDS011;32676;52.630;4.896;2024-02-14T14:21:38;7.32;;;3.30;;
46941;SDS011;32676;52.630;4.896;2024-02-14T14:24:07;11.18;;;2.08;;
46941;SDS011;32676;52.630;4.896;2024-02-14T14:26:34;7.57;;;2.47;;
46941;SDS011;32676;52.630;4.896;2024-02-14T14:29:01;9.15;;;2.30;;
46941;SDS011;32676;52.630;4.896;2024-02-14T14:31:27;7.35;;;2.15;;
46941;SDS011;32676;52.630;4.896;2024-02-14T14:33:54;6.45;;;2.80;;
46941;SDS011;32676;52.630;4.896;2024-02-14T14:36:22;11.48;;;3.33;;
46941;SDS011;32676;52.630;4.896;2024-02-14T14:46:31;9.95;;;2.55;;
46941;SDS011;32676;52.630;4.896;2024-02-14T14:49:00;15.98;;;3.95;;